sensor_id;sensor_type;location;lat;lon;timestamp;P1;durP1;ratioP1;P2;durP2;ratioP2
55435;SDS011;41307;53.142;6.430;2022-10-31T00:02:20;25.23;;;15.02;;
55435;SDS011;41307;53.142;6.430;2022-10-31T00:04:46;24.30;;;15.18;;
55435;SDS011;41307;53.142;6.430;2022-10-31T00:07:12;25.88;;;15.70;;
55435;SDS011;41307;53.142;6.430;2022-10-31T00:09:37;25.08;;;15.55;;
55435;SDS011;41307;53.142;6.430;2022-10-31T00:12:03;27.95;;;17.67;;
55435;SDS011;41307;53.142;6.430;2022-10-31T00:14:29;26.52;;;17.55;;
55435;SDS011;41307;53.142;6.430;2022-10-31T00:16:55;24.67;;;15.88;;
55435;SDS011;41307;53.142;6.430;2022-10-31T00:19:20;30.42;;;18.23;;
55435;SDS011;41307;53.142;6.430;2022-10-31T00:21:46;24.77;;;16.63;;
55435;SDS011;41307;53.142;6.430;2022-10-31T00:24:12;28.25;;;16.27;;
55435;SDS011;41307;53.142;6.430;2022-10-31T00:26:37;27.55;;;17.17;;
55435;SDS011;41307;53.142;6.430;2022-10-31T00:29:03;29.88;;;17.85;;
55435;SDS011;41307;53.142;6.430;2022-10-31T00:31:29;29.92;;;18.80;;
55435;SDS011;41307;53.142;6.430;2022-10-31T00:33:55;27.48;;;17.27;;
55435;SDS011;41307;53.142;6.430;2022-10-31T00:36:22;29.90;;;17.55;;
55435;SDS011;41307;53.142;6.430;2022-10-31T00:38:47;24.38;;;16.30;;
55435;SDS011;41307;53.142;6.430;2022-10-31T00:41:14;27.90;;;16.98;;
55435;SDS011;41307;53.142;6.430;2022-10-31T00:43:41;26.90;;;17.08;;
55435;SDS011;41307;53.142;6.430;2022-10-31T00:46:07;29.55;;;17.92;;
55435;SDS011;41307;53.142;6.430;2022-10-31T00:48:33;30.55;;;17.90;;
55435;SDS011;41307;53.142;6.430;2022-10-31T00:50:58;28.40;;;17.35;;
55435;SDS011;41307;53.142;6.430;2022-10-31T00:53:24;29.92;;;16.90;;
55435;SDS011;41307;53.142;6.430;2022-10-31T00:55:50;31.63;;;16.52;;
55435;SDS011;41307;53.142;6.430;2022-10-31T00:58:16;28.08;;;17.92;;
55435;SDS011;41307;53.142;6.430;2022-10-31T01:00:41;23.42;;;16.55;;
55435;SDS011;41307;53.142;6.430;2022-10-31T01:03:07;29.25;;;17.27;;
55435;SDS011;41307;53.142;6.430;2022-10-31T01:05:33;27.30;;;15.50;;
55435;SDS011;41307;53.142;6.430;2022-10-31T01:07:59;24.75;;;15.75;;
55435;SDS011;41307;53.142;6.430;2022-10-31T01:10:24;29.00;;;15.98;;
55435;SDS011;41307;53.142;6.430;2022-10-31T01:12:50;26.20;;;15.80;;
55435;SDS011;41307;53.142;6.430;2022-10-31T01:15:17;23.25;;;15.70;;
55435;SDS011;41307;53.142;6.430;2022-10-31T01:17:45;22.02;;;14.32;;
55435;SDS011;41307;53.142;6.430;2022-10-31T01:20:11;22.13;;;13.98;;
55435;SDS011;41307;53.142;6.430;2022-10-31T01:22:38;25.48;;;14.60;;
55435;SDS011;41307;53.142;6.430;2022-10-31T01:25:04;25.95;;;14.57;;
55435;SDS011;41307;53.142;6.430;2022-10-31T01:27:31;20.88;;;14.68;;
55435;SDS011;41307;53.142;6.430;2022-10-31T01:29:57;26.52;;;14.75;;
55435;SDS011;41307;53.142;6.430;2022-10-31T01:32:23;25.10;;;14.55;;
55435;SDS011;41307;53.142;6.430;2022-10-31T01:34:49;23.75;;;15.40;;
55435;SDS011;41307;53.142;6.430;2022-10-31T01:37:15;23.95;;;14.73;;
55435;SDS011;41307;53.142;6.430;2022-10-31T01:39:41;25.35;;;14.07;;
55435;SDS011;41307;53.142;6.430;2022-10-31T01:42:09;24.23;;;14.38;;
55435;SDS011;41307;53.142;6.430;2022-10-31T01:47:11;26.27;;;14.05;;
55435;SDS011;41307;53.142;6.430;2022-10-31T01:49:47;23.65;;;14.32;;
55435;SDS011;41307;53.142;6.430;2022-10-31T01:54:50;22.98;;;13.98;;
55435;SDS011;41307;53.142;6.430;2022-10-31T01:57:21;22.95;;;14.93;;
55435;SDS011;41307;53.142;6.430;2022-10-31T01:59:48;23.13;;;14.02;;
55435;SDS011;41307;53.142;6.430;2022-10-31T02:02:17;24.70;;;14.02;;
55435;SDS011;41307;53.142;6.430;2022-10-31T02:04:44;22.70;;;14.00;;
55435;SDS011;41307;53.142;6.430;2022-10-31T02:07:12;24.30;;;15.07;;
55435;SDS011;41307;53.142;6.430;2022-10-31T02:09:41;23.38;;;14.35;;
55435;SDS011;41307;53.142;6.430;2022-10-31T02:12:08;21.38;;;14.10;;
55435;SDS011;41307;53.142;6.430;2022-10-31T02:14:35;25.67;;;14.93;;
55435;SDS011;41307;53.142;6.430;2022-10-31T02:17:02;23.27;;;15.00;;
55435;SDS011;41307;53.142;6.430;2022-10-31T02:19:34;20.02;;;14.48;;
55435;SDS011;41307;53.142;6.430;2022-10-31T02:22:26;22.88;;;13.82;;
55435;SDS011;41307;53.142;6.430;2022-10-31T02:30:20;26.67;;;15.68;;
55435;SDS011;41307;53.142;6.430;2022-10-31T02:32:54;23.85;;;15.18;;
55435;SDS011;41307;53.142;6.430;2022-10-31T02:40:41;21.75;;;15.90;;
55435;SDS011;41307;53.142;6.430;2022-10-31T02:45:49;25.15;;;15.57;;
55435;SDS011;41307;53.142;6.430;2022-10-31T02:48:30;23.75;;;15.73;;
55435;SDS011;41307;53.142;6.430;2022-10-31T02:51:01;26.33;;;15.95;;
55435;SDS011;41307;53.142;6.430;2022-10-31T02:53:35;23.17;;;15.32;;
55435;SDS011;41307;53.142;6.430;2022-10-31T02:56:04;21.73;;;14.60;;
55435;SDS011;41307;53.142;6.430;2022-10-31T02:58:39;22.92;;;14.68;;
55435;SDS011;41307;53.142;6.430;2022-10-31T03:09:34;24.05;;;14.88;;
55435;SDS011;41307;53.142;6.430;2022-10-31T03:17:36;20.77;;;14.68;;
55435;SDS011;41307;53.142;6.430;2022-10-31T03:20:08;22.70;;;14.52;;
55435;SDS011;41307;53.142;6.430;2022-10-31T03:22:35;24.52;;;15.45;;
55435;SDS011;41307;53.142;6.430;2022-10-31T03:25:04;25.13;;;14.57;;
55435;SDS011;41307;53.142;6.430;2022-10-31T03:27:31;23.10;;;14.60;;
55435;SDS011;41307;53.142;6.430;2022-10-31T03:30:00;21.73;;;15.25;;
55435;SDS011;41307;53.142;6.430;2022-10-31T03:32:29;26.90;;;15.60;;
55435;SDS011;41307;53.142;6.430;2022-10-31T03:34:59;26.23;;;15.50;;
55435;SDS011;41307;53.142;6.430;2022-10-31T03:37:29;26.10;;;15.82;;
55435;SDS011;41307;53.142;6.430;2022-10-31T03:39:58;24.77;;;15.52;;
55435;SDS011;41307;53.142;6.430;2022-10-31T03:42:26;22.70;;;15.68;;
55435;SDS011;41307;53.142;6.430;2022-10-31T03:45:06;23.45;;;15.13;;
55435;SDS011;41307;53.142;6.430;2022-10-31T03:47:37;20.98;;;14.93;;
55435;SDS011;41307;53.142;6.430;2022-10-31T03:50:05;25.45;;;15.68;;
55435;SDS011;41307;53.142;6.430;2022-10-31T03:52:37;23.75;;;15.48;;
55435;SDS011;41307;53.142;6.430;2022-10-31T03:55:09;26.80;;;16.58;;
55435;SDS011;41307;53.142;6.430;2022-10-31T03:57:50;21.17;;;14.75;;
55435;SDS011;41307;53.142;6.430;2022-10-31T04:00:24;21.77;;;15.18;;
55435;SDS011;41307;53.142;6.430;2022-10-31T04:02:53;23.80;;;15.02;;
55435;SDS011;41307;53.142;6.430;2022-10-31T04:05:25;21.98;;;15.50;;
55435;SDS011;41307;53.142;6.430;2022-10-31T04:07:53;25.90;;;15.30;;
55435;SDS011;41307;53.142;6.430;2022-10-31T04:10:21;24.00;;;15.68;;
55435;SDS011;41307;53.142;6.430;2022-10-31T04:12:50;20.63;;;14.48;;
55435;SDS011;41307;53.142;6.430;2022-10-31T04:15:21;25.10;;;15.95;;
55435;SDS011;41307;53.142;6.430;2022-10-31T04:17:49;20.25;;;14.40;;
55435;SDS011;41307;53.142;6.430;2022-10-31T04:20:16;22.33;;;14.27;;
55435;SDS011;41307;53.142;6.430;2022-10-31T04:22:42;22.67;;;15.18;;
55435;SDS011;41307;53.142;6.430;2022-10-31T04:25:08;22.70;;;14.35;;
55435;SDS011;41307;53.142;6.430;2022-10-31T04:27:34;18.60;;;13.45;;
55435;SDS011;41307;53.142;6.430;2022-10-31T04:30:00;19.85;;;14.02;;
55435;SDS011;41307;53.142;6.430;2022-10-31T04:32:25;20.83;;;13.07;;
55435;SDS011;41307;53.142;6.430;2022-10-31T04:34:51;17.88;;;12.85;;
55435;SDS011;41307;53.142;6.430;2022-10-31T04:37:17;21.25;;;14.45;;
55435;SDS011;41307;53.142;6.430;2022-10-31T04:39:42;21.00;;;14.48;;
55435;SDS011;41307;53.142;6.430;2022-10-31T04:42:08;20.92;;;15.10;;
55435;SDS011;41307;53.142;6.430;2022-10-31T04:44:34;22.45;;;15.93;;
55435;SDS011;41307;53.142;6.430;2022-10-31T04:47:00;21.45;;;15.63;;
55435;SDS011;41307;53.142;6.430;2022-10-31T04:49:26;21.98;;;15.48;;
55435;SDS011;41307;53.142;6.430;2022-10-31T04:51:51;21.40;;;15.65;;
55435;SDS011;41307;53.142;6.430;2022-10-31T04:54:17;24.80;;;16.80;;
55435;SDS011;41307;53.142;6.430;2022-10-31T04:56:42;26.55;;;17.48;;
55435;SDS011;41307;53.142;6.430;2022-10-31T04:59:08;21.75;;;16.95;;
55435;SDS011;41307;53.142;6.430;2022-10-31T05:01:34;20.95;;;15.38;;
55435;SDS011;41307;53.142;6.430;2022-10-31T05:04:00;22.98;;;16.23;;
55435;SDS011;41307;53.142;6.430;2022-10-31T05:06:25;21.45;;;15.48;;
55435;SDS011;41307;53.142;6.430;2022-10-31T05:08:51;25.80;;;17.30;;
55435;SDS011;41307;53.142;6.430;2022-10-31T05:11:17;28.73;;;18.00;;
55435;SDS011;41307;53.142;6.430;2022-10-31T05:13:43;26.73;;;17.42;;
55435;SDS011;41307;53.142;6.430;2022-10-31T05:16:08;26.73;;;18.10;;
55435;SDS011;41307;53.142;6.430;2022-10-31T05:18:34;27.33;;;17.30;;
55435;SDS011;41307;53.142;6.430;2022-10-31T05:21:00;25.15;;;17.23;;
55435;SDS011;41307;53.142;6.430;2022-10-31T05:23:25;25.98;;;17.50;;
55435;SDS011;41307;53.142;6.430;2022-10-31T05:25:51;25.10;;;16.75;;
55435;SDS011;41307;53.142;6.430;2022-10-31T05:28:17;27.63;;;17.58;;
55435;SDS011;41307;53.142;6.430;2022-10-31T05:30:43;25.58;;;17.25;;
55435;SDS011;41307;53.142;6.430;2022-10-31T05:33:08;24.02;;;16.85;;
55435;SDS011;41307;53.142;6.430;2022-10-31T05:35:34;24.67;;;16.83;;
55435;SDS011;41307;53.142;6.430;2022-10-31T05:37:59;28.05;;;18.02;;
55435;SDS011;41307;53.142;6.430;2022-10-31T05:40:26;25.50;;;17.95;;
55435;SDS011;41307;53.142;6.430;2022-10-31T05:42:53;24.80;;;17.63;;
55435;SDS011;41307;53.142;6.430;2022-10-31T05:45:19;25.17;;;17.13;;
55435;SDS011;41307;53.142;6.430;2022-10-31T05:47:50;25.42;;;16.98;;
55435;SDS011;41307;53.142;6.430;2022-10-31T05:50:16;26.58;;;17.55;;
55435;SDS011;41307;53.142;6.430;2022-10-31T05:52:42;25.15;;;17.48;;
55435;SDS011;41307;53.142;6.430;2022-10-31T05:55:08;26.58;;;18.30;;
55435;SDS011;41307;53.142;6.430;2022-10-31T05:57:34;23.95;;;16.83;;
55435;SDS011;41307;53.142;6.430;2022-10-31T05:59:59;24.25;;;17.45;;
55435;SDS011;41307;53.142;6.430;2022-10-31T06:02:25;24.58;;;17.20;;
55435;SDS011;41307;53.142;6.430;2022-10-31T06:04:51;23.92;;;16.25;;
55435;SDS011;41307;53.142;6.430;2022-10-31T06:07:17;25.65;;;17.45;;
55435;SDS011;41307;53.142;6.430;2022-10-31T06:09:43;23.92;;;16.85;;
55435;SDS011;41307;53.142;6.430;2022-10-31T06:12:09;25.80;;;17.63;;
55435;SDS011;41307;53.142;6.430;2022-10-31T06:14:35;25.08;;;16.50;;
55435;SDS011;41307;53.142;6.430;2022-10-31T06:17:01;25.70;;;16.77;;
55435;SDS011;41307;53.142;6.430;2022-10-31T06:19:27;20.88;;;15.13;;
55435;SDS011;41307;53.142;6.430;2022-10-31T06:21:52;23.05;;;16.35;;
55435;SDS011;41307;53.142;6.430;2022-10-31T06:24:18;21.70;;;15.77;;
55435;SDS011;41307;53.142;6.430;2022-10-31T06:26:44;23.95;;;17.25;;
55435;SDS011;41307;53.142;6.430;2022-10-31T06:29:10;24.63;;;16.80;;
55435;SDS011;41307;53.142;6.430;2022-10-31T06:31:38;28.00;;;16.80;;
55435;SDS011;41307;53.142;6.430;2022-10-31T06:34:04;27.17;;;15.98;;
55435;SDS011;41307;53.142;6.430;2022-10-31T06:36:30;22.55;;;15.77;;
55435;SDS011;41307;53.142;6.430;2022-10-31T06:38:55;22.65;;;14.75;;
55435;SDS011;41307;53.142;6.430;2022-10-31T06:41:21;19.95;;;14.85;;
55435;SDS011;41307;53.142;6.430;2022-10-31T06:43:49;21.98;;;14.98;;
55435;SDS011;41307;53.142;6.430;2022-10-31T06:46:15;22.10;;;15.27;;
55435;SDS011;41307;53.142;6.430;2022-10-31T06:48:41;20.25;;;15.32;;
55435;SDS011;41307;53.142;6.430;2022-10-31T06:51:07;20.55;;;14.73;;
55435;SDS011;41307;53.142;6.430;2022-10-31T06:53:33;18.45;;;13.93;;
55435;SDS011;41307;53.142;6.430;2022-10-31T06:56:02;20.15;;;14.18;;
55435;SDS011;41307;53.142;6.430;2022-10-31T06:58:27;22.17;;;14.85;;
55435;SDS011;41307;53.142;6.430;2022-10-31T07:00:53;20.80;;;13.32;;
55435;SDS011;41307;53.142;6.430;2022-10-31T07:03:22;19.80;;;14.35;;
55435;SDS011;41307;53.142;6.430;2022-10-31T07:05:47;21.02;;;14.82;;
55435;SDS011;41307;53.142;6.430;2022-10-31T07:08:13;21.90;;;14.13;;
55435;SDS011;41307;53.142;6.430;2022-10-31T07:10:40;20.50;;;14.93;;
55435;SDS011;41307;53.142;6.430;2022-10-31T07:13:13;22.30;;;15.98;;
55435;SDS011;41307;53.142;6.430;2022-10-31T07:15:40;22.42;;;14.63;;
55435;SDS011;41307;53.142;6.430;2022-10-31T07:18:08;20.80;;;16.02;;
55435;SDS011;41307;53.142;6.430;2022-10-31T07:20:35;20.42;;;14.35;;
55435;SDS011;41307;53.142;6.430;2022-10-31T07:23:01;26.25;;;16.05;;
55435;SDS011;41307;53.142;6.430;2022-10-31T07:25:27;23.00;;;15.13;;
55435;SDS011;41307;53.142;6.430;2022-10-31T07:27:53;25.05;;;16.05;;
55435;SDS011;41307;53.142;6.430;2022-10-31T07:30:19;21.63;;;15.32;;
55435;SDS011;41307;53.142;6.430;2022-10-31T07:34:09;21.52;;;15.50;;
55435;SDS011;41307;53.142;6.430;2022-10-31T07:36:35;20.70;;;15.70;;
55435;SDS011;41307;53.142;6.430;2022-10-31T07:39:01;23.27;;;16.08;;
55435;SDS011;41307;53.142;6.430;2022-10-31T07:41:30;21.23;;;16.10;;
55435;SDS011;41307;53.142;6.430;2022-10-31T07:43:56;24.45;;;15.90;;
55435;SDS011;41307;53.142;6.430;2022-10-31T07:46:22;23.90;;;16.40;;
55435;SDS011;41307;53.142;6.430;2022-10-31T07:48:48;21.75;;;15.88;;
55435;SDS011;41307;53.142;6.430;2022-10-31T07:51:14;21.23;;;16.08;;
55435;SDS011;41307;53.142;6.430;2022-10-31T07:53:40;21.15;;;16.08;;
55435;SDS011;41307;53.142;6.430;2022-10-31T07:56:06;22.40;;;15.90;;
55435;SDS011;41307;53.142;6.430;2022-10-31T07:58:32;24.20;;;14.95;;
55435;SDS011;41307;53.142;6.430;2022-10-31T08:01:00;20.67;;;14.52;;
55435;SDS011;41307;53.142;6.430;2022-10-31T08:03:26;23.60;;;16.20;;
55435;SDS011;41307;53.142;6.430;2022-10-31T08:05:57;19.80;;;14.65;;
55435;SDS011;41307;53.142;6.430;2022-10-31T08:08:26;19.88;;;15.50;;
55435;SDS011;41307;53.142;6.430;2022-10-31T08:10:57;21.92;;;14.85;;
55435;SDS011;41307;53.142;6.430;2022-10-31T08:13:23;17.55;;;13.70;;
55435;SDS011;41307;53.142;6.430;2022-10-31T08:15:49;22.30;;;14.23;;
55435;SDS011;41307;53.142;6.430;2022-10-31T08:18:17;18.98;;;14.02;;
55435;SDS011;41307;53.142;6.430;2022-10-31T08:20:47;18.42;;;13.15;;
55435;SDS011;41307;53.142;6.430;2022-10-31T08:23:13;16.27;;;12.38;;
55435;SDS011;41307;53.142;6.430;2022-10-31T08:25:42;16.85;;;12.88;;
55435;SDS011;41307;53.142;6.430;2022-10-31T08:28:13;17.48;;;12.52;;
55435;SDS011;41307;53.142;6.430;2022-10-31T08:30:40;19.42;;;11.73;;
55435;SDS011;41307;53.142;6.430;2022-10-31T08:33:10;14.32;;;10.57;;
55435;SDS011;41307;53.142;6.430;2022-10-31T08:35:43;14.88;;;10.73;;
55435;SDS011;41307;53.142;6.430;2022-10-31T08:38:19;13.30;;;10.65;;
55435;SDS011;41307;53.142;6.430;2022-10-31T08:40:48;13.70;;;9.70;;
55435;SDS011;41307;53.142;6.430;2022-10-31T08:43:17;14.13;;;9.93;;
55435;SDS011;41307;53.142;6.430;2022-10-31T08:45:48;11.88;;;9.68;;
55435;SDS011;41307;53.142;6.430;2022-10-31T08:48:15;13.13;;;9.75;;
55435;SDS011;41307;53.142;6.430;2022-10-31T08:50:42;11.10;;;8.80;;
55435;SDS011;41307;53.142;6.430;2022-10-31T08:53:14;10.25;;;8.20;;
55435;SDS011;41307;53.142;6.430;2022-10-31T08:55:45;12.18;;;9.00;;
55435;SDS011;41307;53.142;6.430;2022-10-31T08:58:13;14.02;;;8.95;;
55435;SDS011;41307;53.142;6.430;2022-10-31T09:04:22;13.73;;;9.00;;
55435;SDS011;41307;53.142;6.430;2022-10-31T09:06:54;10.35;;;8.23;;
55435;SDS011;41307;53.142;6.430;2022-10-31T09:09:33;11.77;;;7.70;;
55435;SDS011;41307;53.142;6.430;2022-10-31T09:23:41;11.85;;;7.70;;
55435;SDS011;41307;53.142;6.430;2022-10-31T09:30:08;10.07;;;6.93;;
55435;SDS011;41307;53.142;6.430;2022-10-31T09:32:34;9.38;;;6.53;;
55435;SDS011;41307;53.142;6.430;2022-10-31T09:35:00;11.85;;;6.93;;
55435;SDS011;41307;53.142;6.430;2022-10-31T09:37:26;9.50;;;6.63;;
55435;SDS011;41307;53.142;6.430;2022-10-31T09:39:52;10.30;;;7.28;;
55435;SDS011;41307;53.142;6.430;2022-10-31T09:42:24;9.05;;;6.82;;
55435;SDS011;41307;53.142;6.430;2022-10-31T09:45:18;7.88;;;6.60;;
55435;SDS011;41307;53.142;6.430;2022-10-31T10:59:45;9.30;;;6.82;;
55435;SDS011;41307;53.142;6.430;2022-10-31T11:02:18;12.15;;;7.03;;
55435;SDS011;41307;53.142;6.430;2022-10-31T11:04:54;10.13;;;7.05;;
55435;SDS011;41307;53.142;6.430;2022-10-31T11:07:24;9.45;;;6.65;;
55435;SDS011;41307;53.142;6.430;2022-10-31T11:12:28;10.73;;;7.05;;
55435;SDS011;41307;53.142;6.430;2022-10-31T11:14:57;13.82;;;7.38;;
55435;SDS011;41307;53.142;6.430;2022-10-31T11:17:37;10.93;;;7.70;;
55435;SDS011;41307;53.142;6.430;2022-10-31T11:22:47;12.95;;;7.72;;
55435;SDS011;41307;53.142;6.430;2022-10-31T11:25:25;12.50;;;7.18;;
55435;SDS011;41307;53.142;6.430;2022-10-31T11:28:02;12.23;;;7.55;;
55435;SDS011;41307;53.142;6.430;2022-10-31T11:30:46;10.98;;;6.75;;
55435;SDS011;41307;53.142;6.430;2022-10-31T11:36:21;12.07;;;7.53;;
55435;SDS011;41307;53.142;6.430;2022-10-31T11:38:50;11.93;;;7.50;;
55435;SDS011;41307;53.142;6.430;2022-10-31T11:41:17;12.02;;;7.57;;
55435;SDS011;41307;53.142;6.430;2022-10-31T11:44:02;11.00;;;6.43;;
55435;SDS011;41307;53.142;6.430;2022-10-31T11:46:35;9.88;;;6.25;;
55435;SDS011;41307;53.142;6.430;2022-10-31T11:49:27;7.85;;;5.88;;
55435;SDS011;41307;53.142;6.430;2022-10-31T11:52:05;10.35;;;6.05;;
55435;SDS011;41307;53.142;6.430;2022-10-31T11:59:52;8.23;;;5.40;;
55435;SDS011;41307;53.142;6.430;2022-10-31T12:02:22;7.93;;;5.50;;
55435;SDS011;41307;53.142;6.430;2022-10-31T12:05:11;10.50;;;5.80;;
55435;SDS011;41307;53.142;6.430;2022-10-31T12:07:46;10.43;;;6.25;;
55435;SDS011;41307;53.142;6.430;2022-10-31T12:10:14;10.30;;;5.95;;
55435;SDS011;41307;53.142;6.430;2022-10-31T12:12:56;7.82;;;5.57;;
55435;SDS011;41307;53.142;6.430;2022-10-31T12:15:55;9.52;;;5.07;;
55435;SDS011;41307;53.142;6.430;2022-10-31T12:18:42;7.90;;;5.38;;
55435;SDS011;41307;53.142;6.430;2022-10-31T12:27:16;9.57;;;6.72;;
55435;SDS011;41307;53.142;6.430;2022-10-31T12:43:08;9.27;;;4.93;;
55435;SDS011;41307;53.142;6.430;2022-10-31T12:45:53;7.72;;;4.60;;
55435;SDS011;41307;53.142;6.430;2022-10-31T12:59:53;8.90;;;4.40;;
55435;SDS011;41307;53.142;6.430;2022-10-31T13:02:30;7.90;;;3.83;;
55435;SDS011;41307;53.142;6.430;2022-10-31T13:08:06;6.47;;;3.22;;
55435;SDS011;41307;53.142;6.430;2022-10-31T13:11:08;7.40;;;3.53;;
55435;SDS011;41307;53.142;6.430;2022-10-31T13:13:43;6.35;;;3.40;;
55435;SDS011;41307;53.142;6.430;2022-10-31T13:16:19;7.30;;;3.38;;
55435;SDS011;41307;53.142;6.430;2022-10-31T13:18:54;5.22;;;3.08;;
55435;SDS011;41307;53.142;6.430;2022-10-31T13:21:49;8.05;;;3.00;;
55435;SDS011;41307;53.142;6.430;2022-10-31T13:25:49;8.93;;;3.15;;
55435;SDS011;41307;53.142;6.430;2022-10-31T13:28:24;6.78;;;2.72;;
55435;SDS011;41307;53.142;6.430;2022-10-31T13:31:13;6.55;;;2.80;;
55435;SDS011;41307;53.142;6.430;2022-10-31T13:33:49;6.30;;;2.17;;
55435;SDS011;41307;53.142;6.430;2022-10-31T13:39:03;4.28;;;1.70;;
55435;SDS011;41307;53.142;6.430;2022-10-31T13:41:50;6.50;;;2.05;;
55435;SDS011;41307;53.142;6.430;2022-10-31T13:44:24;4.70;;;1.73;;
55435;SDS011;41307;53.142;6.430;2022-10-31T13:46:52;4.80;;;1.80;;
55435;SDS011;41307;53.142;6.430;2022-10-31T13:57:27;6.70;;;3.25;;
55435;SDS011;41307;53.142;6.430;2022-10-31T14:00:22;6.72;;;3.20;;
55435;SDS011;41307;53.142;6.430;2022-10-31T14:02:53;6.40;;;2.65;;
55435;SDS011;41307;53.142;6.430;2022-10-31T14:07:52;6.05;;;2.45;;
55435;SDS011;41307;53.142;6.430;2022-10-31T14:12:47;7.50;;;3.10;;
55435;SDS011;41307;53.142;6.430;2022-10-31T14:15:18;7.78;;;2.92;;
55435;SDS011;41307;53.142;6.430;2022-10-31T14:17:54;7.78;;;2.95;;
55435;SDS011;41307;53.142;6.430;2022-10-31T14:20:38;9.60;;;3.03;;
55435;SDS011;41307;53.142;6.430;2022-10-31T14:28:50;9.20;;;4.30;;
55435;SDS011;41307;53.142;6.430;2022-10-31T14:31:30;10.27;;;3.45;;
55435;SDS011;41307;53.142;6.430;2022-10-31T14:34:01;11.82;;;4.00;;
55435;SDS011;41307;53.142;6.430;2022-10-31T14:36:45;6.82;;;3.40;;
55435;SDS011;41307;53.142;6.430;2022-10-31T14:39:18;8.43;;;3.47;;
55435;SDS011;41307;53.142;6.430;2022-10-31T14:50:48;9.75;;;3.78;;
55435;SDS011;41307;53.142;6.430;2022-10-31T14:55:59;10.30;;;4.30;;
55435;SDS011;41307;53.142;6.430;2022-10-31T15:01:04;10.57;;;5.78;;
55435;SDS011;41307;53.142;6.430;2022-10-31T15:03:34;9.50;;;4.93;;
55435;SDS011;41307;53.142;6.430;2022-10-31T15:06:11;11.63;;;6.05;;
55435;SDS011;41307;53.142;6.430;2022-10-31T15:08:45;12.18;;;6.50;;
55435;SDS011;41307;53.142;6.430;2022-10-31T15:11:16;13.07;;;5.57;;
55435;SDS011;41307;53.142;6.430;2022-10-31T15:13:50;9.48;;;5.55;;
55435;SDS011;41307;53.142;6.430;2022-10-31T15:16:21;11.82;;;6.45;;
55435;SDS011;41307;53.142;6.430;2022-10-31T15:18:56;13.52;;;5.75;;
55435;SDS011;41307;53.142;6.430;2022-10-31T15:21:26;11.40;;;6.13;;
55435;SDS011;41307;53.142;6.430;2022-10-31T15:23:54;11.32;;;5.68;;
55435;SDS011;41307;53.142;6.430;2022-10-31T15:26:22;8.48;;;5.35;;
55435;SDS011;41307;53.142;6.430;2022-10-31T15:29:02;9.57;;;5.43;;
55435;SDS011;41307;53.142;6.430;2022-10-31T15:31:30;10.13;;;5.53;;
55435;SDS011;41307;53.142;6.430;2022-10-31T15:33:58;8.57;;;5.25;;
55435;SDS011;41307;53.142;6.430;2022-10-31T15:36:28;13.23;;;5.03;;
55435;SDS011;41307;53.142;6.430;2022-10-31T15:38:57;9.15;;;4.88;;
55435;SDS011;41307;53.142;6.430;2022-10-31T15:41:26;11.18;;;4.60;;
55435;SDS011;41307;53.142;6.430;2022-10-31T15:43:53;10.02;;;5.30;;
55435;SDS011;41307;53.142;6.430;2022-10-31T15:46:20;9.35;;;5.30;;
55435;SDS011;41307;53.142;6.430;2022-10-31T15:48:46;11.27;;;4.88;;
55435;SDS011;41307;53.142;6.430;2022-10-31T15:51:13;10.45;;;5.47;;
55435;SDS011;41307;53.142;6.430;2022-10-31T15:53:46;9.82;;;4.93;;
55435;SDS011;41307;53.142;6.430;2022-10-31T15:56:20;9.88;;;5.82;;
55435;SDS011;41307;53.142;6.430;2022-10-31T15:58:52;9.60;;;5.88;;
55435;SDS011;41307;53.142;6.430;2022-10-31T16:01:29;11.07;;;6.03;;
55435;SDS011;41307;53.142;6.430;2022-10-31T16:06:37;11.32;;;5.65;;
55435;SDS011;41307;53.142;6.430;2022-10-31T16:09:04;13.40;;;6.45;;
55435;SDS011;41307;53.142;6.430;2022-10-31T16:11:47;11.25;;;6.78;;
55435;SDS011;41307;53.142;6.430;2022-10-31T16:16:51;9.82;;;6.30;;
55435;SDS011;41307;53.142;6.430;2022-10-31T16:19:23;10.25;;;5.72;;
55435;SDS011;41307;53.142;6.430;2022-10-31T16:21:53;12.23;;;6.03;;
55435;SDS011;41307;53.142;6.430;2022-10-31T16:24:30;11.33;;;5.73;;
55435;SDS011;41307;53.142;6.430;2022-10-31T16:27:01;10.18;;;5.97;;
55435;SDS011;41307;53.142;6.430;2022-10-31T16:29:34;9.77;;;5.82;;
55435;SDS011;41307;53.142;6.430;2022-10-31T16:32:23;11.65;;;5.55;;
55435;SDS011;41307;53.142;6.430;2022-10-31T16:35:45;11.27;;;6.10;;
55435;SDS011;41307;53.142;6.430;2022-10-31T16:37:48;11.38;;;5.10;;
55435;SDS011;41307;53.142;6.430;2022-10-31T16:40:16;8.82;;;4.97;;
55435;SDS011;41307;53.142;6.430;2022-10-31T16:42:42;10.77;;;5.80;;
55435;SDS011;41307;53.142;6.430;2022-10-31T16:45:22;11.45;;;5.63;;
55435;SDS011;41307;53.142;6.430;2022-10-31T16:47:50;10.32;;;5.28;;
55435;SDS011;41307;53.142;6.430;2022-10-31T16:52:42;9.68;;;5.18;;
55435;SDS011;41307;53.142;6.430;2022-10-31T16:55:12;10.05;;;5.32;;
55435;SDS011;41307;53.142;6.430;2022-10-31T16:57:38;9.93;;;5.25;;
55435;SDS011;41307;53.142;6.430;2022-10-31T17:00:29;9.75;;;5.75;;
55435;SDS011;41307;53.142;6.430;2022-10-31T17:02:56;10.00;;;6.22;;
55435;SDS011;41307;53.142;6.430;2022-10-31T17:05:22;8.65;;;6.07;;
55435;SDS011;41307;53.142;6.430;2022-10-31T17:07:58;10.77;;;6.45;;
55435;SDS011;41307;53.142;6.430;2022-10-31T17:10:24;9.55;;;6.32;;
55435;SDS011;41307;53.142;6.430;2022-10-31T17:12:51;13.52;;;7.22;;
55435;SDS011;41307;53.142;6.430;2022-10-31T17:15:21;12.43;;;7.15;;
55435;SDS011;41307;53.142;6.430;2022-10-31T17:17:49;10.18;;;6.60;;
55435;SDS011;41307;53.142;6.430;2022-10-31T17:20:22;10.85;;;7.03;;
55435;SDS011;41307;53.142;6.430;2022-10-31T17:22:50;14.77;;;7.20;;
55435;SDS011;41307;53.142;6.430;2022-10-31T17:25:17;12.18;;;7.65;;
55435;SDS011;41307;53.142;6.430;2022-10-31T17:27:49;12.70;;;7.82;;
55435;SDS011;41307;53.142;6.430;2022-10-31T17:30:15;12.85;;;7.50;;
55435;SDS011;41307;53.142;6.430;2022-10-31T17:32:43;14.45;;;8.52;;
55435;SDS011;41307;53.142;6.430;2022-10-31T17:35:10;14.07;;;8.48;;
55435;SDS011;41307;53.142;6.430;2022-10-31T17:37:41;11.82;;;7.75;;
55435;SDS011;41307;53.142;6.430;2022-10-31T17:40:20;14.35;;;8.55;;
55435;SDS011;41307;53.142;6.430;2022-10-31T17:42:50;13.93;;;8.75;;
55435;SDS011;41307;53.142;6.430;2022-10-31T17:45:17;15.98;;;9.25;;
55435;SDS011;41307;53.142;6.430;2022-10-31T17:47:45;16.25;;;9.25;;
55435;SDS011;41307;53.142;6.430;2022-10-31T17:50:19;15.88;;;10.35;;
55435;SDS011;41307;53.142;6.430;2022-10-31T17:52:47;16.42;;;10.75;;
55435;SDS011;41307;53.142;6.430;2022-10-31T17:55:13;17.13;;;11.13;;
55435;SDS011;41307;53.142;6.430;2022-10-31T17:57:39;17.95;;;11.45;;
55435;SDS011;41307;53.142;6.430;2022-10-31T18:00:06;16.10;;;11.20;;
55435;SDS011;41307;53.142;6.430;2022-10-31T18:02:34;21.40;;;11.55;;
55435;SDS011;41307;53.142;6.430;2022-10-31T18:05:00;16.98;;;11.75;;
55435;SDS011;41307;53.142;6.430;2022-10-31T18:07:27;20.75;;;12.73;;
55435;SDS011;41307;53.142;6.430;2022-10-31T18:09:52;19.08;;;13.38;;
55435;SDS011;41307;53.142;6.430;2022-10-31T18:12:18;17.33;;;12.63;;
55435;SDS011;41307;53.142;6.430;2022-10-31T18:14:44;21.17;;;13.43;;
55435;SDS011;41307;53.142;6.430;2022-10-31T18:17:10;25.58;;;14.68;;
55435;SDS011;41307;53.142;6.430;2022-10-31T18:19:36;22.88;;;14.88;;
55435;SDS011;41307;53.142;6.430;2022-10-31T18:22:04;21.65;;;14.38;;